(°F)
58°
58°
57°
57°
56°
55°
53°
(°F)
54°
54°
53°
53°
52°
50°
48°
SE
SE
SSE
S
SSW
SSW
SW
(mph)
10-18
11-18
10-19
10-18
9-18
9-18
9-17
(in)
0.1
0.1
0.1
0.1
0.1
0
0
(%)
92
99
96
92
89
64
39

Sun elevation

/ -24.2°
sun-icon
UV 5
07:00
20:09
Waning crescent (341°)
06:47
18:50

METAR for Monroe (KTTF)

Time Conditions Temperature/
Dewpoint
Wind Visibility Weather Clouds Pressure Change Raw
LIFR 58.64°F / 56.66°F 90º 6kt Gust 23kt 2000m Heavy Rain 8.89mm precipitation Broken Clouds 200ft - KTTF 110215Z AUTO 09006G23KT 1 1/4SM +RA BKN002 BKN009 OVC015 15/14 A2944 RMK AO2 P0035 T01480137
LIFR 58.1°F / 55.94°F 50º 6kt 6400m Light Rain 2.29mm precipitation Overcast 200ft - KTTF 110155Z AUTO 05006KT 4SM -RA OVC002 15/13 A2945 RMK AO2 P0009 T01450133
LIFR 57.92°F / 55.94°F 50º 7kt 6400m Light Rain 1.78mm precipitation Broken Clouds 200ft - KTTF 110135Z AUTO 05007KT 4SM -RA BKN002 BKN017 OVC024 14/13 A2947 RMK AO2 P0007 T01440133
MVFR 58.1°F / 55.94°F 40º 5kt 4800m Rain 1.27mm precipitation Scattered Clouds 1600ft - KTTF 110115Z AUTO 04005KT 3SM RA SCT016 BKN023 OVC049 15/13 A2949 RMK AO2 P0005 T01450133
MVFR 57.56°F / 55.58°F 50º 4kt 6400m Rain 4.32mm precipitation Scattered Clouds 4300ft - KTTF 110055Z AUTO 05004KT 4SM RA SCT043 BKN050 OVC070 14/13 A2949 RMK AO2 P0017 T01420131
MVFR 57.92°F / 55.94°F variable 0kt 6400m Rain 2.29mm precipitation Scattered Clouds 4500ft - KTTF 110035Z AUTO 00000KT 4SM RA SCT045 SCT050 OVC070 14/13 A2950 RMK AO2 P0009 T01440133
MVFR 58.1°F / 55.94°F variable 0kt 6400m Rain 1.02mm precipitation Broken Clouds 6000ft - KTTF 110015Z AUTO 00000KT 4SM RA BKN060 BKN075 OVC085 15/13 A2950 RMK AO2 P0004 T01450133
VFR 57.38°F / 55.4°F 320º 5kt >10km Light Rain 1.78mm precipitation Scattered Clouds 6500ft - KTTF 102355Z AUTO 32005KT 7SM -RA SCT065 OVC085 14/13 A2949 RMK AO2 P0007 60034 T01410130 10215 20133
MVFR 56.48°F / 54.5°F 320º 5kt 6400m Rain 1.52mm precipitation Scattered Clouds 6500ft - KTTF 102335Z AUTO 32005KT 4SM RA SCT065 OVC080 14/13 A2950 RMK AO2 P0006 T01360125
MVFR 56.3°F / 54.14°F 310º 4kt 6400m Rain 0.76mm precipitation Broken Clouds 7000ft - KTTF 102315Z AUTO 31004KT 4SM RA BKN070 BKN075 OVC090 14/12 A2951 RMK AO2 P0003 T01350123
MVFR 55.94°F / 53.96°F variable 0kt 8000m Light Rain 2.03mm precipitation Scattered Clouds 7000ft - KTTF 102255Z AUTO 00000KT 5SM -RA SCT070 OVC080 13/12 A2952 RMK AO2 P0008 T01330122
MVFR 56.3°F / 54.5°F 80º 3kt 6400m Rain 1.27mm precipitation Scattered Clouds 7000ft - KTTF 102235Z AUTO 08003KT 4SM RA SCT070 OVC090 14/13 A2953 RMK AO2 P0005 T01350125
VFR 56.3°F / 54.14°F 190º 4kt >10km Light Rain 0.51mm precipitation Scattered Clouds 1800ft - KTTF 102215Z AUTO 19004KT 7SM -RA SCT018 SCT047 OVC090 14/12 A2954 RMK AO2 P0002 T01350123
VFR 59°F / 52.7°F 190º 11kt Gust 22kt >10km Light Rain 0.76mm precipitation Scattered Clouds 4600ft - KTTF 102155Z AUTO 19011G22KT 10SM -RA SCT046 BKN065 OVC090 15/12 A2955 RMK AO2 P0003 T01500115
VFR 61.16°F / 50.36°F 140º 6kt >10km - Scattered Clouds 4100ft - KTTF 102135Z AUTO 14006KT 10SM SCT041 SCT065 BKN085 16/10 A2952 RMK AO2 T01620102
VFR 64.76°F / 50.9°F 70º 11kt Gust 18kt >10km - Scattered Clouds 8500ft - KTTF 102115Z AUTO 07011G18KT 10SM SCT085 SCT110 18/11 A2952 RMK AO2 T01820105
VFR 66.2°F / 50.72°F 100º variable 080º to 140º 8kt Gust 14kt >10km - Clear - KTTF 102055Z AUTO 10008G14KT 080V140 10SM CLR 19/10 A2954 RMK AO2 T01900104
VFR 68.54°F / 49.1°F 80º 9kt >10km - Clear - KTTF 102035Z AUTO 08009KT 10SM CLR 20/10 A2955 RMK AO2 T02030095
VFR 69.08°F / 49.46°F 100º 8kt >10km - Scattered Clouds 7000ft - KTTF 102015Z AUTO 10008KT 10SM SCT070 SCT120 21/10 A2956 RMK AO2 T02060097
VFR 70.52°F / 48.38°F 90º 7kt >10km - Scattered Clouds 12000ft - KTTF 101955Z AUTO 09007KT 10SM SCT120 21/09 A2957 RMK AO2 T02140091
VFR 69.98°F / 48.74°F 80º 8kt >10km - Clear - KTTF 101935Z AUTO 08008KT 10SM CLR 21/09 A2959 RMK AO2 T02110093
VFR 69.8°F / 48.56°F 90º 7kt >10km - Clear - KTTF 101915Z AUTO 09007KT 10SM CLR 21/09 A2959 RMK AO2 T02100092
VFR 69.8°F / 48.74°F 80º 9kt >10km - Clear - KTTF 101855Z AUTO 08009KT 10SM CLR 21/09 A2960 RMK AO2 T02100093
VFR 69.26°F / 47.84°F 90º 5kt >10km - Clear - KTTF 101835Z AUTO 09005KT 10SM CLR 21/09 A2962 RMK AO2 T02070088

LIFR

58.64°F / 56.66°F

[More]
Wind 90º 6kt Gust 23kt
Visibility 2000m
Weather Heavy Rain 8.89mm precipitation
Clouds Broken Clouds 200ft
Pressure
Change -
Raw KTTF 110215Z AUTO 09006G23KT 1 1/4SM +RA BKN002 BKN009 OVC015 15/14 A2944 RMK AO2 P0035 T01480137

LIFR

58.1°F / 55.94°F

[More]
Wind 50º 6kt
Visibility 6400m
Weather Light Rain 2.29mm precipitation
Clouds Overcast 200ft
Pressure
Change -
Raw KTTF 110155Z AUTO 05006KT 4SM -RA OVC002 15/13 A2945 RMK AO2 P0009 T01450133

LIFR

57.92°F / 55.94°F

[More]
Wind 50º 7kt
Visibility 6400m
Weather Light Rain 1.78mm precipitation
Clouds Broken Clouds 200ft
Pressure
Change -
Raw KTTF 110135Z AUTO 05007KT 4SM -RA BKN002 BKN017 OVC024 14/13 A2947 RMK AO2 P0007 T01440133

MVFR

58.1°F / 55.94°F

[More]
Wind 40º 5kt
Visibility 4800m
Weather Rain 1.27mm precipitation
Clouds Scattered Clouds 1600ft
Pressure
Change -
Raw KTTF 110115Z AUTO 04005KT 3SM RA SCT016 BKN023 OVC049 15/13 A2949 RMK AO2 P0005 T01450133

MVFR

57.56°F / 55.58°F

[More]
Wind 50º 4kt
Visibility 6400m
Weather Rain 4.32mm precipitation
Clouds Scattered Clouds 4300ft
Pressure
Change -
Raw KTTF 110055Z AUTO 05004KT 4SM RA SCT043 BKN050 OVC070 14/13 A2949 RMK AO2 P0017 T01420131

MVFR

57.92°F / 55.94°F

[More]
Wind variable 0kt
Visibility 6400m
Weather Rain 2.29mm precipitation
Clouds Scattered Clouds 4500ft
Pressure
Change -
Raw KTTF 110035Z AUTO 00000KT 4SM RA SCT045 SCT050 OVC070 14/13 A2950 RMK AO2 P0009 T01440133

MVFR

58.1°F / 55.94°F

[More]
Wind variable 0kt
Visibility 6400m
Weather Rain 1.02mm precipitation
Clouds Broken Clouds 6000ft
Pressure
Change -
Raw KTTF 110015Z AUTO 00000KT 4SM RA BKN060 BKN075 OVC085 15/13 A2950 RMK AO2 P0004 T01450133

VFR

57.38°F / 55.4°F

[More]
Wind 320º 5kt
Visibility >10km
Weather Light Rain 1.78mm precipitation
Clouds Scattered Clouds 6500ft
Pressure
Change -
Raw KTTF 102355Z AUTO 32005KT 7SM -RA SCT065 OVC085 14/13 A2949 RMK AO2 P0007 60034 T01410130 10215 20133

MVFR

56.48°F / 54.5°F

[More]
Wind 320º 5kt
Visibility 6400m
Weather Rain 1.52mm precipitation
Clouds Scattered Clouds 6500ft
Pressure
Change -
Raw KTTF 102335Z AUTO 32005KT 4SM RA SCT065 OVC080 14/13 A2950 RMK AO2 P0006 T01360125

MVFR

56.3°F / 54.14°F

[More]
Wind 310º 4kt
Visibility 6400m
Weather Rain 0.76mm precipitation
Clouds Broken Clouds 7000ft
Pressure
Change -
Raw KTTF 102315Z AUTO 31004KT 4SM RA BKN070 BKN075 OVC090 14/12 A2951 RMK AO2 P0003 T01350123

MVFR

55.94°F / 53.96°F

[More]
Wind variable 0kt
Visibility 8000m
Weather Light Rain 2.03mm precipitation
Clouds Scattered Clouds 7000ft
Pressure
Change -
Raw KTTF 102255Z AUTO 00000KT 5SM -RA SCT070 OVC080 13/12 A2952 RMK AO2 P0008 T01330122

MVFR

56.3°F / 54.5°F

[More]
Wind 80º 3kt
Visibility 6400m
Weather Rain 1.27mm precipitation
Clouds Scattered Clouds 7000ft
Pressure
Change -
Raw KTTF 102235Z AUTO 08003KT 4SM RA SCT070 OVC090 14/13 A2953 RMK AO2 P0005 T01350125

VFR

56.3°F / 54.14°F

[More]
Wind 190º 4kt
Visibility >10km
Weather Light Rain 0.51mm precipitation
Clouds Scattered Clouds 1800ft
Pressure
Change -
Raw KTTF 102215Z AUTO 19004KT 7SM -RA SCT018 SCT047 OVC090 14/12 A2954 RMK AO2 P0002 T01350123

VFR

59°F / 52.7°F

[More]
Wind 190º 11kt Gust 22kt
Visibility >10km
Weather Light Rain 0.76mm precipitation
Clouds Scattered Clouds 4600ft
Pressure
Change -
Raw KTTF 102155Z AUTO 19011G22KT 10SM -RA SCT046 BKN065 OVC090 15/12 A2955 RMK AO2 P0003 T01500115

VFR

61.16°F / 50.36°F

[More]
Wind 140º 6kt
Visibility >10km
Weather -
Clouds Scattered Clouds 4100ft
Pressure
Change -
Raw KTTF 102135Z AUTO 14006KT 10SM SCT041 SCT065 BKN085 16/10 A2952 RMK AO2 T01620102

VFR

64.76°F / 50.9°F

[More]
Wind 70º 11kt Gust 18kt
Visibility >10km
Weather -
Clouds Scattered Clouds 8500ft
Pressure
Change -
Raw KTTF 102115Z AUTO 07011G18KT 10SM SCT085 SCT110 18/11 A2952 RMK AO2 T01820105

VFR

66.2°F / 50.72°F

[More]
Wind 100º variable 080º to 140º 8kt Gust 14kt
Visibility >10km
Weather -
Clouds Clear
Pressure
Change -
Raw KTTF 102055Z AUTO 10008G14KT 080V140 10SM CLR 19/10 A2954 RMK AO2 T01900104

VFR

68.54°F / 49.1°F

[More]
Wind 80º 9kt
Visibility >10km
Weather -
Clouds Clear
Pressure
Change -
Raw KTTF 102035Z AUTO 08009KT 10SM CLR 20/10 A2955 RMK AO2 T02030095

VFR

69.08°F / 49.46°F

[More]
Wind 100º 8kt
Visibility >10km
Weather -
Clouds Scattered Clouds 7000ft
Pressure
Change -
Raw KTTF 102015Z AUTO 10008KT 10SM SCT070 SCT120 21/10 A2956 RMK AO2 T02060097

VFR

70.52°F / 48.38°F

[More]
Wind 90º 7kt
Visibility >10km
Weather -
Clouds Scattered Clouds 12000ft
Pressure
Change -
Raw KTTF 101955Z AUTO 09007KT 10SM SCT120 21/09 A2957 RMK AO2 T02140091

VFR

69.98°F / 48.74°F

[More]
Wind 80º 8kt
Visibility >10km
Weather -
Clouds Clear
Pressure
Change -
Raw KTTF 101935Z AUTO 08008KT 10SM CLR 21/09 A2959 RMK AO2 T02110093

VFR

69.8°F / 48.56°F

[More]
Wind 90º 7kt
Visibility >10km
Weather -
Clouds Clear
Pressure
Change -
Raw KTTF 101915Z AUTO 09007KT 10SM CLR 21/09 A2959 RMK AO2 T02100092

VFR

69.8°F / 48.74°F

[More]
Wind 80º 9kt
Visibility >10km
Weather -
Clouds Clear
Pressure
Change -
Raw KTTF 101855Z AUTO 08009KT 10SM CLR 21/09 A2960 RMK AO2 T02100093

VFR

69.26°F / 47.84°F

[More]
Wind 90º 5kt
Visibility >10km
Weather -
Clouds Clear
Pressure
Change -
Raw KTTF 101835Z AUTO 09005KT 10SM CLR 21/09 A2962 RMK AO2 T02070088

Current satellite images for Monroe, United States of America

The location marker is placed on Monroe. [More]

The real-time satellite image combines visible light during daytime with infrared radiation during nighttime. At night, the image is not dark as infrared radiation can detect temperature differences. Unfortunately, low clouds and fog are difficult to distinguish from ground temperatures and thus can be almost invisible during the night. Meteosat satellite images for Europe are updated in real-time every 5 minutes. GOES-16/GOES-17 (North & South America) and Himawari (Asia) images update every 10 minutes.

Radar and precipitation nowcast for Monroe

The location marker is placed on Monroe. This animation shows the precipitation radar for the last hour, as well as a 1h forecast. Drizzle or light snow fall might be invisible for the radar. Precipitation intensity is colour coded, ranging from light blue to heavy purple.